sensor_id;sensor_type;location;lat;lon;timestamp;pressure;altitude;pressure_sealevel;temperature;humidity
60101;BME280;45978;53.646;55.930;2022-09-01T00:00:19;98951.69;;;20.22;40.33
60101;BME280;45978;53.646;55.930;2022-09-01T00:01:23;98961.66;;;20.20;40.53
60101;BME280;45978;53.646;55.930;2022-09-01T00:02:28;98961.53;;;20.21;40.54
60101;BME280;45978;53.646;55.930;2022-09-01T00:03:29;98957.53;;;20.15;40.55
60101;BME280;45978;53.646;55.930;2022-09-01T00:04:30;98958.97;;;20.20;40.42
60101;BME280;45978;53.646;55.930;2022-09-01T00:05:32;98960.94;;;20.17;40.50
60101;BME280;45978;53.646;55.930;2022-09-01T00:06:36;98960.94;;;20.17;40.61
60101;BME280;45978;53.646;55.930;2022-09-01T00:07:38;98954.03;;;20.15;40.44
60101;BME280;45978;53.646;55.930;2022-09-01T00:08:39;98964.44;;;20.18;40.47
60101;BME280;45978;53.646;55.930;2022-09-01T00:09:40;98962.88;;;20.15;40.51
60101;BME280;45978;53.646;55.930;2022-09-01T00:10:41;98961.31;;;20.13;40.69
60101;BME280;45978;53.646;55.930;2022-09-01T00:11:51;98956.09;;;20.11;40.61
60101;BME280;45978;53.646;55.930;2022-09-01T00:12:52;98958.88;;;20.10;40.44
60101;BME280;45978;53.646;55.930;2022-09-01T00:13:55;98963.84;;;20.14;40.65
60101;BME280;45978;53.646;55.930;2022-09-01T00:14:56;98962.03;;;20.15;40.60
60101;BME280;45978;53.646;55.930;2022-09-01T00:16:00;98956.81;;;20.13;40.53
60101;BME280;45978;53.646;55.930;2022-09-01T00:17:07;98963.72;;;20.16;40.62
60101;BME280;45978;53.646;55.930;2022-09-01T00:18:09;98956.00;;;20.13;40.76
60101;BME280;45978;53.646;55.930;2022-09-01T00:19:13;98961.16;;;20.14;40.73
60101;BME280;45978;53.646;55.930;2022-09-01T00:20:14;98960.34;;;20.14;40.80
60101;BME280;45978;53.646;55.930;2022-09-01T00:21:18;98960.44;;;20.12;40.85
60101;BME280;45978;53.646;55.930;2022-09-01T00:22:20;98948.41;;;19.97;41.02
60101;BME280;45978;53.646;55.930;2022-09-01T00:23:21;98948.63;;;20.05;40.80
60101;BME280;45978;53.646;55.930;2022-09-01T00:24:22;98948.13;;;20.00;40.89
60101;BME280;45978;53.646;55.930;2022-09-01T00:25:27;98944.25;;;20.04;40.96
60101;BME280;45978;53.646;55.930;2022-09-01T00:26:28;98952.97;;;20.06;40.88
60101;BME280;45978;53.646;55.930;2022-09-01T00:27:29;98951.28;;;20.05;40.84
60101;BME280;45978;53.646;55.930;2022-09-01T00:28:35;98952.25;;;20.04;40.93
60101;BME280;45978;53.646;55.930;2022-09-01T00:29:36;98953.59;;;19.98;40.92
60101;BME280;45978;53.646;55.930;2022-09-01T00:30:38;98946.19;;;20.02;40.81
60101;BME280;45978;53.646;55.930;2022-09-01T00:31:40;98955.63;;;20.06;40.81
60101;BME280;45978;53.646;55.930;2022-09-01T00:32:41;98944.63;;;20.00;40.87
60101;BME280;45978;53.646;55.930;2022-09-01T00:33:47;98950.28;;;20.06;40.83
60101;BME280;45978;53.646;55.930;2022-09-01T00:34:49;98943.41;;;20.04;40.66
60101;BME280;45978;53.646;55.930;2022-09-01T00:35:50;98956.34;;;20.08;40.69
60101;BME280;45978;53.646;55.930;2022-09-01T00:36:51;98954.47;;;19.99;40.78
60101;BME280;45978;53.646;55.930;2022-09-01T00:37:52;98947.31;;;20.00;40.77
60101;BME280;45978;53.646;55.930;2022-09-01T00:38:55;98945.13;;;19.93;40.80
60101;BME280;45978;53.646;55.930;2022-09-01T00:39:57;98953.13;;;19.93;40.89
60101;BME280;45978;53.646;55.930;2022-09-01T00:40:59;98947.81;;;19.93;41.09
60101;BME280;45978;53.646;55.930;2022-09-01T00:42:00;98948.88;;;19.91;41.04
60101;BME280;45978;53.646;55.930;2022-09-01T00:43:11;98941.03;;;19.89;41.15
60101;BME280;45978;53.646;55.930;2022-09-01T00:44:17;98943.19;;;19.95;40.96
60101;BME280;45978;53.646;55.930;2022-09-01T00:45:19;98944.28;;;19.93;40.86
60101;BME280;45978;53.646;55.930;2022-09-01T00:46:24;98947.53;;;19.96;40.98
60101;BME280;45978;53.646;55.930;2022-09-01T00:47:25;98945.25;;;19.92;40.86
60101;BME280;45978;53.646;55.930;2022-09-01T00:48:26;98941.88;;;19.90;40.80
60101;BME280;45978;53.646;55.930;2022-09-01T00:49:37;98937.50;;;19.89;40.92
60101;BME280;45978;53.646;55.930;2022-09-01T00:50:39;98932.94;;;19.80;40.95
60101;BME280;45978;53.646;55.930;2022-09-01T00:51:44;98935.94;;;19.86;40.89
60101;BME280;45978;53.646;55.930;2022-09-01T00:52:51;98946.09;;;19.92;40.85
60101;BME280;45978;53.646;55.930;2022-09-01T00:53:53;98941.75;;;19.91;40.79
60101;BME280;45978;53.646;55.930;2022-09-01T00:54:59;98942.81;;;19.89;40.87
60101;BME280;45978;53.646;55.930;2022-09-01T00:56:05;98941.75;;;19.91;40.70
60101;BME280;45978;53.646;55.930;2022-09-01T00:57:08;98925.28;;;19.86;40.58
60101;BME280;45978;53.646;55.930;2022-09-01T00:58:09;98936.53;;;19.90;40.75
60101;BME280;45978;53.646;55.930;2022-09-01T00:59:11;98943.56;;;19.91;40.63
60101;BME280;45978;53.646;55.930;2022-09-01T01:00:20;98941.75;;;19.91;40.53
60101;BME280;45978;53.646;55.930;2022-09-01T01:01:22;98948.53;;;19.95;40.59
60101;BME280;45978;53.646;55.930;2022-09-01T01:02:24;98950.34;;;19.95;40.72
60101;BME280;45978;53.646;55.930;2022-09-01T01:03:25;98946.09;;;19.92;40.66
60101;BME280;45978;53.646;55.930;2022-09-01T01:04:26;98945.50;;;19.89;40.64
60101;BME280;45978;53.646;55.930;2022-09-01T01:05:33;98948.66;;;19.94;40.55
60101;BME280;45978;53.646;55.930;2022-09-01T01:06:36;98955.69;;;19.95;40.48
60101;BME280;45978;53.646;55.930;2022-09-01T01:07:37;98951.19;;;19.95;40.24
60101;BME280;45978;53.646;55.930;2022-09-01T01:08:46;98953.47;;;20.00;40.41
60101;BME280;45978;53.646;55.930;2022-09-01T01:10:00;98953.75;;;19.97;40.22
60101;BME280;45978;53.646;55.930;2022-09-01T01:11:07;98952.16;;;19.94;40.36
60101;BME280;45978;53.646;55.930;2022-09-01T01:12:10;98953.47;;;20.00;40.43
60101;BME280;45978;53.646;55.930;2022-09-01T01:13:15;98947.53;;;19.96;40.44
60101;BME280;45978;53.646;55.930;2022-09-01T01:14:16;98953.97;;;19.94;40.61
60101;BME280;45978;53.646;55.930;2022-09-01T01:15:19;98957.47;;;19.94;40.52
60101;BME280;45978;53.646;55.930;2022-09-01T01:16:22;98956.53;;;19.95;40.46
60101;BME280;45978;53.646;55.930;2022-09-01T01:17:24;98950.72;;;19.90;40.56
60101;BME280;45978;53.646;55.930;2022-09-01T01:18:25;98956.75;;;19.92;40.59
60101;BME280;45978;53.646;55.930;2022-09-01T01:21:05;98959.81;;;19.88;40.81
60101;BME280;45978;53.646;55.930;2022-09-01T01:24:32;98957.88;;;19.90;40.67
60101;BME280;45978;53.646;55.930;2022-09-01T01:26:44;98966.09;;;19.87;40.76
60101;BME280;45978;53.646;55.930;2022-09-01T01:27:48;98962.59;;;19.86;40.49
60101;BME280;45978;53.646;55.930;2022-09-01T01:28:50;98963.19;;;19.90;40.60
60101;BME280;45978;53.646;55.930;2022-09-01T01:29:52;98959.53;;;19.91;40.57
60101;BME280;45978;53.646;55.930;2022-09-01T01:30:59;98958.59;;;19.92;40.69
60101;BME280;45978;53.646;55.930;2022-09-01T01:32:02;98967.41;;;19.92;40.53
60101;BME280;45978;53.646;55.930;2022-09-01T01:33:03;98961.13;;;19.93;40.70
60101;BME280;45978;53.646;55.930;2022-09-01T01:34:05;98964.63;;;19.94;40.56
60101;BME280;45978;53.646;55.930;2022-09-01T01:35:11;98965.59;;;19.93;40.31
60101;BME280;45978;53.646;55.930;2022-09-01T01:36:25;98969.25;;;19.92;40.57
60101;BME280;45978;53.646;55.930;2022-09-01T01:37:33;98972.16;;;19.89;40.65
60101;BME280;45978;53.646;55.930;2022-09-01T01:38:35;98968.53;;;19.90;40.60
60101;BME280;45978;53.646;55.930;2022-09-01T01:39:36;98965.47;;;19.94;40.24
60101;BME280;45978;53.646;55.930;2022-09-01T01:40:43;98968.03;;;19.96;40.61
60101;BME280;45978;53.646;55.930;2022-09-01T01:41:45;98968.03;;;19.96;40.66
60101;BME280;45978;53.646;55.930;2022-09-01T01:42:51;98970.56;;;19.97;40.85
60101;BME280;45978;53.646;55.930;2022-09-01T01:43:55;98970.56;;;19.97;40.55
60101;BME280;45978;53.646;55.930;2022-09-01T01:44:56;98969.72;;;19.97;40.53
60101;BME280;45978;53.646;55.930;2022-09-01T01:45:59;98961.59;;;19.98;40.68
60101;BME280;45978;53.646;55.930;2022-09-01T01:47:10;98962.69;;;19.96;40.60
60101;BME280;45978;53.646;55.930;2022-09-01T01:48:12;98967.19;;;19.95;40.71
60101;BME280;45978;53.646;55.930;2022-09-01T01:49:19;98973.94;;;20.00;40.66
60101;BME280;45978;53.646;55.930;2022-09-01T01:50:27;98968.22;;;20.04;40.55
60101;BME280;45978;53.646;55.930;2022-09-01T01:51:33;98971.75;;;20.05;40.49
60101;BME280;45978;53.646;55.930;2022-09-01T01:52:35;98958.91;;;19.98;40.52
60101;BME280;45978;53.646;55.930;2022-09-01T01:53:37;98966.78;;;20.00;40.79
60101;BME280;45978;53.646;55.930;2022-09-01T01:54:39;98962.81;;;19.94;40.53
60101;BME280;45978;53.646;55.930;2022-09-01T01:55:41;98966.78;;;20.00;40.64
60101;BME280;45978;53.646;55.930;2022-09-01T01:56:43;98965.84;;;19.90;40.92
60101;BME280;45978;53.646;55.930;2022-09-01T01:57:47;98957.97;;;19.88;40.72
60101;BME280;45978;53.646;55.930;2022-09-01T01:58:53;98964.75;;;19.92;40.84
60101;BME280;45978;53.646;55.930;2022-09-01T01:59:56;98968.03;;;19.96;40.84
60101;BME280;45978;53.646;55.930;2022-09-01T02:00:58;98964.25;;;19.98;40.73
60101;BME280;45978;53.646;55.930;2022-09-01T02:02:00;98960.63;;;20.00;40.77
60101;BME280;45978;53.646;55.930;2022-09-01T02:03:05;98962.44;;;19.99;40.49
60101;BME280;45978;53.646;55.930;2022-09-01T02:04:08;98952.34;;;20.03;40.43
60101;BME280;45978;53.646;55.930;2022-09-01T02:05:11;98957.22;;;20.09;40.56
60101;BME280;45978;53.646;55.930;2022-09-01T02:06:12;98961.06;;;20.05;40.66
60101;BME280;45978;53.646;55.930;2022-09-01T02:07:15;98968.00;;;20.07;40.50
60101;BME280;45978;53.646;55.930;2022-09-01T02:08:18;98967.00;;;20.08;40.47
60101;BME280;45978;53.646;55.930;2022-09-01T02:09:24;98970.41;;;20.10;40.44
60101;BME280;45978;53.646;55.930;2022-09-01T02:10:28;98965.34;;;20.07;40.44
60101;BME280;45978;53.646;55.930;2022-09-01T02:11:33;98962.28;;;20.12;40.38
60101;BME280;45978;53.646;55.930;2022-09-01T02:12:38;98971.13;;;20.12;40.51
60101;BME280;45978;53.646;55.930;2022-09-01T02:13:41;98959.22;;;20.16;40.44
60101;BME280;45978;53.646;55.930;2022-09-01T02:14:43;98959.31;;;20.26;40.12
60101;BME280;45978;53.646;55.930;2022-09-01T02:15:53;98969.81;;;20.39;40.01
60101;BME280;45978;53.646;55.930;2022-09-01T02:16:54;98964.56;;;20.49;39.68
60101;BME280;45978;53.646;55.930;2022-09-01T02:18:01;98960.25;;;20.69;39.44
60101;BME280;45978;53.646;55.930;2022-09-01T02:19:04;98964.88;;;20.88;38.93
60101;BME280;45978;53.646;55.930;2022-09-01T02:20:08;98964.16;;;21.16;38.76
60101;BME280;45978;53.646;55.930;2022-09-01T02:21:34;98962.88;;;21.42;38.06
60101;BME280;45978;53.646;55.930;2022-09-01T02:22:35;98964.69;;;21.62;37.93
60101;BME280;45978;53.646;55.930;2022-09-01T02:23:40;98955.19;;;21.89;37.31
60101;BME280;45978;53.646;55.930;2022-09-01T02:24:42;98966.50;;;22.12;36.77
60101;BME280;45978;53.646;55.930;2022-09-01T02:25:51;98952.41;;;22.20;36.65
60101;BME280;45978;53.646;55.930;2022-09-01T02:26:54;98962.88;;;22.52;36.34
60101;BME280;45978;53.646;55.930;2022-09-01T02:27:56;98966.53;;;22.70;36.06
60101;BME280;45978;53.646;55.930;2022-09-01T02:28:59;98951.28;;;22.90;35.58
60101;BME280;45978;53.646;55.930;2022-09-01T02:30:06;98955.44;;;23.22;34.93
60101;BME280;45978;53.646;55.930;2022-09-01T02:31:11;98942.78;;;23.42;34.66
60101;BME280;45978;53.646;55.930;2022-09-01T02:32:13;98954.53;;;23.69;34.34
60101;BME280;45978;53.646;55.930;2022-09-01T02:33:22;98952.00;;;23.95;33.90
60101;BME280;45978;53.646;55.930;2022-09-01T02:34:25;98946.34;;;24.16;33.56
60101;BME280;45978;53.646;55.930;2022-09-01T02:35:29;98957.78;;;24.36;33.29
60101;BME280;45978;53.646;55.930;2022-09-01T02:36:36;98949.59;;;25.08;32.20
60101;BME280;45978;53.646;55.930;2022-09-01T02:37:43;98943.25;;;25.78;30.96
60101;BME280;45978;53.646;55.930;2022-09-01T02:38:47;98957.34;;;26.31;30.23
60101;BME280;45978;53.646;55.930;2022-09-01T02:39:48;98951.31;;;26.61;29.56
60101;BME280;45978;53.646;55.930;2022-09-01T02:40:49;98940.50;;;27.02;29.00
60101;BME280;45978;53.646;55.930;2022-09-01T02:41:53;98950.06;;;27.21;28.65
60101;BME280;45978;53.646;55.930;2022-09-01T02:43:00;98943.91;;;27.60;28.16
60101;BME280;45978;53.646;55.930;2022-09-01T02:44:03;98940.56;;;27.90;27.39
60101;BME280;45978;53.646;55.930;2022-09-01T02:45:12;98946.44;;;27.93;27.79
60101;BME280;45978;53.646;55.930;2022-09-01T02:46:16;98936.69;;;27.92;27.25
60101;BME280;45978;53.646;55.930;2022-09-01T02:47:22;98949.59;;;28.28;26.98
60101;BME280;45978;53.646;55.930;2022-09-01T02:48:32;98946.13;;;28.19;26.27
60101;BME280;45978;53.646;55.930;2022-09-01T02:49:36;98952.16;;;28.44;26.58
60101;BME280;45978;53.646;55.930;2022-09-01T02:50:40;98952.81;;;28.55;26.33
60101;BME280;45978;53.646;55.930;2022-09-01T02:51:42;98946.09;;;28.89;26.02
60101;BME280;45978;53.646;55.930;2022-09-01T02:52:45;98948.28;;;29.08;25.70
60101;BME280;45978;53.646;55.930;2022-09-01T02:53:49;98945.41;;;29.39;25.60
60101;BME280;45978;53.646;55.930;2022-09-01T02:54:52;98939.50;;;29.66;24.98
60101;BME280;45978;53.646;55.930;2022-09-01T02:55:54;98952.31;;;29.72;25.02
60101;BME280;45978;53.646;55.930;2022-09-01T02:57:00;98951.31;;;29.94;24.63
60101;BME280;45978;53.646;55.930;2022-09-01T02:58:02;98950.41;;;29.87;24.49
60101;BME280;45978;53.646;55.930;2022-09-01T02:59:03;98957.72;;;29.87;24.80
60101;BME280;45978;53.646;55.930;2022-09-01T03:00:07;98951.78;;;29.98;24.42
60101;BME280;45978;53.646;55.930;2022-09-01T03:01:24;98946.88;;;30.08;24.30
60101;BME280;45978;53.646;55.930;2022-09-01T03:02:26;98961.66;;;30.42;24.27
60101;BME280;45978;53.646;55.930;2022-09-01T03:03:30;98950.28;;;30.32;24.40
60101;BME280;45978;53.646;55.930;2022-09-01T03:04:32;98952.22;;;30.16;24.42
60101;BME280;45978;53.646;55.930;2022-09-01T03:05:36;98956.44;;;30.26;24.11
60101;BME280;45978;53.646;55.930;2022-09-01T03:06:40;98952.25;;;30.59;24.08
60101;BME280;45978;53.646;55.930;2022-09-01T03:07:44;98959.22;;;30.11;24.24
60101;BME280;45978;53.646;55.930;2022-09-01T03:08:46;98944.75;;;30.04;24.51
60101;BME280;45978;53.646;55.930;2022-09-01T03:09:48;98952.56;;;30.50;23.56
60101;BME280;45978;53.646;55.930;2022-09-01T03:10:51;98955.78;;;30.60;23.73
60101;BME280;45978;53.646;55.930;2022-09-01T03:11:55;98960.56;;;30.58;23.83
60101;BME280;45978;53.646;55.930;2022-09-01T03:12:59;98954.84;;;30.96;23.46
60101;BME280;45978;53.646;55.930;2022-09-01T03:14:02;98954.63;;;31.26;22.83
60101;BME280;45978;53.646;55.930;2022-09-01T03:15:05;98957.34;;;31.26;22.70
60101;BME280;45978;53.646;55.930;2022-09-01T03:16:08;98966.69;;;31.51;22.92
60101;BME280;45978;53.646;55.930;2022-09-01T03:17:10;98954.72;;;31.87;22.42
60101;BME280;45978;53.646;55.930;2022-09-01T03:18:13;98950.22;;;32.01;22.25
60101;BME280;45978;53.646;55.930;2022-09-01T03:19:15;98957.38;;;32.15;22.03
60101;BME280;45978;53.646;55.930;2022-09-01T03:20:19;98948.84;;;32.45;21.57
60101;BME280;45978;53.646;55.930;2022-09-01T03:21:22;98951.41;;;32.67;21.60
60101;BME280;45978;53.646;55.930;2022-09-01T03:22:24;98949.69;;;32.46;21.82
60101;BME280;45978;53.646;55.930;2022-09-01T03:23:27;98948.06;;;32.65;21.50
60101;BME280;45978;53.646;55.930;2022-09-01T03:24:28;98958.09;;;32.91;21.54
60101;BME280;45978;53.646;55.930;2022-09-01T03:25:31;98946.38;;;32.90;21.14
60101;BME280;45978;53.646;55.930;2022-09-01T03:26:34;98954.75;;;33.16;20.83
60101;BME280;45978;53.646;55.930;2022-09-01T03:27:36;98944.81;;;33.48;20.74
60101;BME280;45978;53.646;55.930;2022-09-01T03:28:37;98956.00;;;33.20;20.91
60101;BME280;45978;53.646;55.930;2022-09-01T03:29:39;98956.19;;;33.18;21.19
60101;BME280;45978;53.646;55.930;2022-09-01T03:30:50;98951.78;;;33.17;20.58
60101;BME280;45978;53.646;55.930;2022-09-01T03:31:52;98952.66;;;33.18;21.03
60101;BME280;45978;53.646;55.930;2022-09-01T03:32:53;98951.19;;;33.02;21.26
60101;BME280;45978;53.646;55.930;2022-09-01T03:33:55;98952.88;;;33.09;20.94
60101;BME280;45978;53.646;55.930;2022-09-01T03:35:02;98947.19;;;33.04;21.25
60101;BME280;45978;53.646;55.930;2022-09-01T03:36:05;98954.53;;;33.04;21.30
60101;BME280;45978;53.646;55.930;2022-09-01T03:37:08;98954.31;;;32.99;21.66
60101;BME280;45978;53.646;55.930;2022-09-01T03:38:12;98954.72;;;33.09;21.04
60101;BME280;45978;53.646;55.930;2022-09-01T03:39:23;98950.13;;;32.89;21.41
60101;BME280;45978;53.646;55.930;2022-09-01T03:40:29;98957.66;;;33.14;21.47
60101;BME280;45978;53.646;55.930;2022-09-01T03:41:32;98943.84;;;33.02;21.44
60101;BME280;45978;53.646;55.930;2022-09-01T03:42:38;98958.72;;;33.00;21.38
60101;BME280;45978;53.646;55.930;2022-09-01T03:43:43;98948.22;;;33.03;21.65
60101;BME280;45978;53.646;55.930;2022-09-01T03:44:45;98958.88;;;33.38;21.52
60101;BME280;45978;53.646;55.930;2022-09-01T03:45:48;98956.69;;;33.80;20.83
60101;BME280;45978;53.646;55.930;2022-09-01T03:46:49;98949.16;;;34.14;20.56
60101;BME280;45978;53.646;55.930;2022-09-01T03:47:52;98953.44;;;33.97;20.40
60101;BME280;45978;53.646;55.930;2022-09-01T03:48:57;98959.66;;;33.52;21.27
60101;BME280;45978;53.646;55.930;2022-09-01T03:50:00;98960.72;;;33.51;20.93
60101;BME280;45978;53.646;55.930;2022-09-01T03:51:04;98955.00;;;33.79;21.08
60101;BME280;45978;53.646;55.930;2022-09-01T03:52:05;98959.50;;;33.99;20.76
60101;BME280;45978;53.646;55.930;2022-09-01T03:53:08;98957.28;;;34.27;20.18
60101;BME280;45978;53.646;55.930;2022-09-01T03:54:10;98960.28;;;34.51;20.45
60101;BME280;45978;53.646;55.930;2022-09-01T03:55:12;98954.09;;;34.30;20.63
60101;BME280;45978;53.646;55.930;2022-09-01T03:56:14;98953.56;;;34.47;20.10
60101;BME280;45978;53.646;55.930;2022-09-01T03:57:16;98963.91;;;34.70;20.60
60101;BME280;45978;53.646;55.930;2022-09-01T03:58:18;98951.41;;;34.56;20.12
60101;BME280;45978;53.646;55.930;2022-09-01T03:59:19;98951.91;;;34.46;20.21
60101;BME280;45978;53.646;55.930;2022-09-01T04:00:24;98960.03;;;34.52;20.39
60101;BME280;45978;53.646;55.930;2022-09-01T04:01:30;98949.31;;;34.58;20.17
60101;BME280;45978;53.646;55.930;2022-09-01T04:02:39;98950.34;;;34.31;20.39
60101;BME280;45978;53.646;55.930;2022-09-01T04:03:41;98943.25;;;34.56;20.36
60101;BME280;45978;53.646;55.930;2022-09-01T04:04:43;98952.50;;;34.80;19.98
60101;BME280;45978;53.646;55.930;2022-09-01T04:05:47;98957.25;;;35.16;19.87
60101;BME280;45978;53.646;55.930;2022-09-01T04:06:49;98957.94;;;35.48;19.56
60101;BME280;45978;53.646;55.930;2022-09-01T04:07:51;98952.16;;;35.57;19.23
60101;BME280;45978;53.646;55.930;2022-09-01T04:08:52;98952.16;;;35.57;19.62
60101;BME280;45978;53.646;55.930;2022-09-01T04:09:57;98947.75;;;35.37;19.58
60101;BME280;45978;53.646;55.930;2022-09-01T04:11:02;98961.25;;;34.88;19.91
60101;BME280;45978;53.646;55.930;2022-09-01T04:12:07;98962.63;;;34.98;20.05
60101;BME280;45978;53.646;55.930;2022-09-01T04:13:10;98961.69;;;35.10;20.12
60101;BME280;45978;53.646;55.930;2022-09-01T04:14:11;98965.31;;;34.79;20.41
60101;BME280;45978;53.646;55.930;2022-09-01T04:15:15;98961.69;;;35.10;20.14
60101;BME280;45978;53.646;55.930;2022-09-01T04:16:23;98956.56;;;35.39;19.64
60101;BME280;45978;53.646;55.930;2022-09-01T04:17:44;98970.13;;;35.71;19.62
60101;BME280;45978;53.646;55.930;2022-09-01T04:19:04;98961.19;;;35.57;20.21
60101;BME280;45978;53.646;55.930;2022-09-01T04:20:16;98967.25;;;35.96;19.64
60101;BME280;45978;53.646;55.930;2022-09-01T04:21:20;98965.31;;;36.15;19.43
60101;BME280;45978;53.646;55.930;2022-09-01T04:22:22;98967.38;;;36.20;18.84
60101;BME280;45978;53.646;55.930;2022-09-01T04:23:31;98957.28;;;36.62;18.74
60101;BME280;45978;53.646;55.930;2022-09-01T04:24:41;98971.34;;;36.66;18.80
60101;BME280;45978;53.646;55.930;2022-09-01T04:25:47;98970.28;;;36.37;19.05
60101;BME280;45978;53.646;55.930;2022-09-01T04:26:51;98976.78;;;36.24;19.16
60101;BME280;45978;53.646;55.930;2022-09-01T04:27:52;98972.78;;;36.08;19.41
60101;BME280;45978;53.646;55.930;2022-09-01T04:28:57;98972.09;;;36.43;18.89
60101;BME280;45978;53.646;55.930;2022-09-01T04:30:01;98976.69;;;36.73;19.18
60101;BME280;45978;53.646;55.930;2022-09-01T04:31:09;98972.19;;;36.78;18.63
60101;BME280;45978;53.646;55.930;2022-09-01T04:32:18;98980.81;;;36.21;19.54
60101;BME280;45978;53.646;55.930;2022-09-01T04:33:26;98979.88;;;35.79;19.73
60101;BME280;45978;53.646;55.930;2022-09-01T04:34:38;98969.38;;;35.94;19.51
60101;BME280;45978;53.646;55.930;2022-09-01T04:35:43;98971.44;;;35.99;19.50
60101;BME280;45978;53.646;55.930;2022-09-01T04:36:45;98963.38;;;36.22;19.33
60101;BME280;45978;53.646;55.930;2022-09-01T04:37:46;98968.41;;;36.49;19.09
60101;BME280;45978;53.646;55.930;2022-09-01T04:38:52;98979.66;;;36.71;19.25
60101;BME280;45978;53.646;55.930;2022-09-01T04:39:56;98982.19;;;36.84;19.03
60101;BME280;45978;53.646;55.930;2022-09-01T04:40:58;98966.13;;;36.88;19.01
60101;BME280;45978;53.646;55.930;2022-09-01T04:42:04;98981.00;;;36.92;19.08
60101;BME280;45978;53.646;55.930;2022-09-01T04:43:07;98978.78;;;37.24;18.86
60101;BME280;45978;53.646;55.930;2022-09-01T04:44:09;98981.59;;;37.53;18.76
60101;BME280;45978;53.646;55.930;2022-09-01T04:45:12;98982.22;;;37.43;18.47
60101;BME280;45978;53.646;55.930;2022-09-01T04:46:18;98977.91;;;37.71;18.73
60101;BME280;45978;53.646;55.930;2022-09-01T04:47:20;98981.03;;;37.63;18.15
60101;BME280;45978;53.646;55.930;2022-09-01T04:48:30;98982.91;;;37.74;17.80
60101;BME280;45978;53.646;55.930;2022-09-01T04:49:31;98972.50;;;37.88;17.93
60101;BME280;45978;53.646;55.930;2022-09-01T04:50:33;98974.56;;;37.69;18.27
60101;BME280;45978;53.646;55.930;2022-09-01T04:51:52;98976.13;;;38.17;17.56
60101;BME280;45978;53.646;55.930;2022-09-01T04:52:53;98971.56;;;38.40;17.58
60101;BME280;45978;53.646;55.930;2022-09-01T04:54:04;98967.25;;;38.44;17.33
60101;BME280;45978;53.646;55.930;2022-09-01T04:55:13;98973.53;;;37.99;17.69
60101;BME280;45978;53.646;55.930;2022-09-01T04:56:19;98974.94;;;38.13;17.97
60101;BME280;45978;53.646;55.930;2022-09-01T04:57:31;98968.72;;;38.18;17.61
60101;BME280;45978;53.646;55.930;2022-09-01T04:58:32;98974.31;;;38.40;17.68
60101;BME280;45978;53.646;55.930;2022-09-01T04:59:33;98974.78;;;38.20;17.89
60101;BME280;45978;53.646;55.930;2022-09-01T05:00:35;98973.44;;;38.51;17.39
60101;BME280;45978;53.646;55.930;2022-09-01T05:01:38;98980.34;;;38.54;17.61
60101;BME280;45978;53.646;55.930;2022-09-01T05:02:52;98972.78;;;38.95;17.16
60101;BME280;45978;53.646;55.930;2022-09-01T05:03:55;98960.97;;;38.94;16.60
60101;BME280;45978;53.646;55.930;2022-09-01T05:05:11;98963.63;;;38.89;16.49
60101;BME280;45978;53.646;55.930;2022-09-01T05:06:16;98972.03;;;38.66;16.89
60101;BME280;45978;53.646;55.930;2022-09-01T05:07:22;98976.13;;;38.17;17.46
60101;BME280;45978;53.646;55.930;2022-09-01T05:08:25;98957.56;;;38.24;17.32
60101;BME280;45978;53.646;55.930;2022-09-01T05:09:33;98970.34;;;38.48;17.16
60101;BME280;45978;53.646;55.930;2022-09-01T05:10:53;98976.56;;;39.06;16.88
60101;BME280;45978;53.646;55.930;2022-09-01T05:12:10;98968.63;;;39.26;16.52
60101;BME280;45978;53.646;55.930;2022-09-01T05:13:15;98973.44;;;39.19;16.49
60101;BME280;45978;53.646;55.930;2022-09-01T05:14:18;98960.09;;;39.06;16.34
60101;BME280;45978;53.646;55.930;2022-09-01T05:15:21;98971.72;;;39.13;16.26
60101;BME280;45978;53.646;55.930;2022-09-01T05:16:23;98968.53;;;39.21;16.21
60101;BME280;45978;53.646;55.930;2022-09-01T05:17:29;98977.47;;;39.50;16.25
60101;BME280;45978;53.646;55.930;2022-09-01T05:18:31;98967.88;;;38.80;16.34
60101;BME280;45978;53.646;55.930;2022-09-01T05:19:34;98963.34;;;38.40;16.57
60101;BME280;45978;53.646;55.930;2022-09-01T05:20:40;98966.22;;;38.62;16.60
60101;BME280;45978;53.646;55.930;2022-09-01T05:21:45;98965.22;;;38.68;16.46
60101;BME280;45978;53.646;55.930;2022-09-01T05:22:47;98967.78;;;38.92;16.49
60101;BME280;45978;53.646;55.930;2022-09-01T05:23:48;98960.84;;;38.84;16.39
60101;BME280;45978;53.646;55.930;2022-09-01T05:24:51;98960.72;;;39.13;15.95
60101;BME280;45978;53.646;55.930;2022-09-01T05:25:53;98960.69;;;39.30;15.87
60101;BME280;45978;53.646;55.930;2022-09-01T05:26:57;98972.81;;;39.51;15.65
60101;BME280;45978;53.646;55.930;2022-09-01T05:28:00;98971.38;;;39.65;15.54
60101;BME280;45978;53.646;55.930;2022-09-01T05:29:04;98966.81;;;39.54;15.51
60101;BME280;45978;53.646;55.930;2022-09-01T05:30:11;98965.09;;;39.48;15.83
60101;BME280;45978;53.646;55.930;2022-09-01T05:31:13;98970.53;;;39.87;15.86
60101;BME280;45978;53.646;55.930;2022-09-01T05:32:20;98970.31;;;39.88;15.66
60101;BME280;45978;53.646;55.930;2022-09-01T05:33:21;98963.16;;;39.48;15.67
60101;BME280;45978;53.646;55.930;2022-09-01T05:34:25;98971.66;;;39.08;15.76
60101;BME280;45978;53.646;55.930;2022-09-01T05:35:27;98963.38;;;39.25;15.20
60101;BME280;45978;53.646;55.930;2022-09-01T05:36:30;98958.16;;;39.06;15.82
60101;BME280;45978;53.646;55.930;2022-09-01T05:37:35;98964.59;;;39.34;15.57
60101;BME280;45978;53.646;55.930;2022-09-01T05:38:37;98966.00;;;39.53;15.59
60101;BME280;45978;53.646;55.930;2022-09-01T05:39:42;98959.66;;;39.75;15.40
60101;BME280;45978;53.646;55.930;2022-09-01T05:40:54;98959.31;;;40.15;15.26